createdAt,value
2022-09-17T00:01:17.250Z,0.10
2022-09-17T00:03:45.255Z,0.20
2022-09-17T00:06:12.551Z,0.10
2022-09-17T00:08:39.837Z,0.30
2022-09-17T00:11:07.949Z,0.10
2022-09-17T00:13:34.472Z,0.20
2022-09-17T00:16:00.875Z,0.30
2022-09-17T00:18:27.423Z,0.15
2022-09-17T00:20:54.139Z,0.20
2022-09-17T00:23:20.414Z,0.20
2022-09-17T00:25:46.717Z,0.10
2022-09-17T00:28:14.122Z,0.10
2022-09-17T00:30:44.098Z,0.20
2022-09-17T00:33:14.211Z,0.10
2022-09-17T00:35:40.495Z,0.20
2022-09-17T00:38:06.985Z,0.30
2022-09-17T00:40:33.471Z,0.28
2022-09-17T00:42:59.801Z,0.15
2022-09-17T00:45:26.318Z,0.57
2022-09-17T00:47:58.151Z,0.10
2022-09-17T00:50:29.751Z,0.20
2022-09-17T00:53:01.389Z,0.30
2022-09-17T00:55:29.034Z,0.10
2022-09-17T00:57:57.350Z,0.10
2022-09-17T01:00:23.607Z,0.15
2022-09-17T01:02:50.039Z,0.22
2022-09-17T01:05:16.470Z,0.10
2022-09-17T01:07:42.711Z,0.28
2022-09-17T01:10:23.999Z,0.10
2022-09-17T01:13:09.113Z,0.10
2022-09-17T01:15:41.397Z,0.10
2022-09-17T01:18:21.746Z,0.25
2022-09-17T01:20:57.157Z,0.15
2022-09-17T01:23:41.942Z,0.30
2022-09-17T01:26:26.990Z,0.10
2022-09-17T01:29:07.015Z,0.15
2022-09-17T01:31:44.954Z,0.10
2022-09-17T01:34:17.426Z,0.10
2022-09-17T01:36:46.438Z,0.10
2022-09-17T01:39:18.867Z,0.10
2022-09-17T01:41:45.545Z,0.10
2022-09-17T01:44:30.675Z,0.68
2022-09-17T01:47:00.263Z,0.40
2022-09-17T01:49:26.878Z,0.10
2022-09-17T01:51:54.753Z,0.10
2022-09-17T01:54:27.806Z,0.10
2022-09-17T01:56:57.137Z,0.10
2022-09-17T01:59:32.682Z,0.20
2022-09-17T02:02:06.860Z,0.50
2022-09-17T02:04:36.167Z,0.80
2022-09-17T02:07:04.890Z,0.40
2022-09-17T02:09:40.012Z,0.25
2022-09-17T02:12:09.862Z,0.50
2022-09-17T02:14:39.235Z,0.90
2022-09-17T02:17:12.453Z,0.50
2022-09-17T02:19:39.977Z,0.55
2022-09-17T02:22:14.978Z,0.77
2022-09-17T02:24:46.049Z,0.98
2022-09-17T02:27:35.041Z,0.70
2022-09-17T02:30:01.292Z,0.80
2022-09-17T02:32:27.671Z,0.45
2022-09-17T02:34:53.941Z,0.50
2022-09-17T02:37:20.287Z,0.70
2022-09-17T02:39:46.695Z,0.68
2022-09-17T02:42:22.437Z,2.10
2022-09-17T02:44:57.903Z,0.65
2022-09-17T02:47:35.697Z,1.00
2022-09-17T02:50:10.955Z,0.95
2022-09-17T02:52:46.531Z,0.50
2022-09-17T02:55:33.073Z,0.70
2022-09-17T02:58:05.679Z,1.63
2022-09-17T03:00:32.205Z,2.15
2022-09-17T03:03:04.213Z,1.38
2022-09-17T03:05:30.683Z,0.55
2022-09-17T03:07:57.163Z,1.30
2022-09-17T03:10:23.582Z,1.60
2022-09-17T03:12:49.958Z,0.82
2022-09-17T03:15:16.268Z,1.15
2022-09-17T03:17:42.536Z,0.40
2022-09-17T03:20:09.001Z,1.20
2022-09-17T03:22:36.414Z,1.38
2022-09-17T03:25:02.770Z,3.13
2022-09-17T03:27:29.042Z,0.98
2022-09-17T03:29:55.275Z,0.43
2022-09-17T03:32:21.545Z,0.68
2022-09-17T03:34:47.826Z,1.52
2022-09-17T03:37:14.117Z,1.23
2022-09-17T03:39:40.401Z,2.08
2022-09-17T03:42:06.645Z,0.70
2022-09-17T03:44:32.910Z,1.27
2022-09-17T03:46:59.167Z,1.95
2022-09-17T03:49:25.599Z,1.50
2022-09-17T03:51:51.865Z,0.85
2022-09-17T03:54:18.129Z,0.82
2022-09-17T03:56:44.381Z,1.73
2022-09-17T03:59:10.861Z,2.03
2022-09-17T04:01:37.232Z,0.88
2022-09-17T04:04:03.907Z,0.90
2022-09-17T04:06:30.215Z,3.63
2022-09-17T04:08:56.907Z,1.10
2022-09-17T04:11:23.254Z,1.02
2022-09-17T04:13:49.686Z,1.55
2022-09-17T04:16:16.099Z,1.42
2022-09-17T04:18:42.418Z,2.38
2022-09-17T04:21:08.665Z,1.55
2022-09-17T04:23:34.924Z,1.83
2022-09-17T04:26:01.266Z,1.27
2022-09-17T04:28:27.603Z,2.45
2022-09-17T04:30:53.872Z,1.45
2022-09-17T04:33:20.155Z,2.03
2022-09-17T04:35:46.510Z,1.73
2022-09-17T04:38:18.240Z,0.85
2022-09-17T04:40:46.333Z,1.05
2022-09-17T04:43:12.728Z,1.52
2022-09-17T04:45:39.139Z,1.42
2022-09-17T04:48:05.662Z,1.92
2022-09-17T04:50:32.063Z,3.83
2022-09-17T04:52:58.341Z,2.03
2022-09-17T04:55:24.867Z,1.50
2022-09-17T04:57:52.433Z,1.45
2022-09-17T05:00:19.533Z,2.55
2022-09-17T05:02:48.371Z,1.90
2022-09-17T05:05:15.284Z,3.60
2022-09-17T05:07:41.617Z,2.35
2022-09-17T05:10:08.779Z,3.42
2022-09-17T05:12:35.058Z,3.67
2022-09-17T05:15:02.051Z,3.53
2022-09-17T05:17:28.419Z,4.03
2022-09-17T05:19:54.671Z,5.18
2022-09-17T05:22:21.713Z,3.47
2022-09-17T05:24:48.199Z,3.08
2022-09-17T05:27:14.461Z,2.95
2022-09-17T05:29:40.867Z,2.67
2022-09-17T05:32:07.499Z,2.70
2022-09-17T05:34:33.970Z,2.50
2022-09-17T05:37:00.229Z,2.78
2022-09-17T05:39:26.480Z,3.13
2022-09-17T05:41:53.271Z,1.95
2022-09-17T05:44:19.753Z,3.67
2022-09-17T05:46:46.692Z,2.83
2022-09-17T05:49:14.228Z,5.35
2022-09-17T05:51:41.214Z,2.28
2022-09-17T05:54:07.756Z,2.97
2022-09-17T05:56:34.263Z,2.75
2022-09-17T05:59:00.563Z,3.28
2022-09-17T06:01:27.388Z,2.45
2022-09-17T06:03:53.823Z,2.63
2022-09-17T06:06:20.090Z,3.53
2022-09-17T06:08:46.366Z,3.83
2022-09-17T06:11:12.632Z,2.90
2022-09-17T06:13:38.891Z,2.28
2022-09-17T06:16:05.304Z,3.78
2022-09-17T06:18:31.725Z,3.28
2022-09-17T06:20:59.462Z,2.95
2022-09-17T06:23:26.001Z,3.97
2022-09-17T06:25:56.202Z,4.47
2022-09-17T06:28:22.511Z,2.85
2022-09-17T06:30:48.855Z,2.92
2022-09-17T06:33:15.276Z,3.55
2022-09-17T06:35:42.145Z,3.67
2022-09-17T06:38:08.418Z,2.08
2022-09-17T06:40:34.747Z,2.35
2022-09-17T06:43:01.077Z,2.88
2022-09-17T06:45:27.425Z,2.13
2022-09-17T06:47:53.683Z,3.63
2022-09-17T06:50:20.156Z,4.55
2022-09-17T06:52:50.218Z,2.10
2022-09-17T06:55:16.588Z,3.60
2022-09-17T06:57:43.060Z,3.03
2022-09-17T07:00:10.067Z,3.30
2022-09-17T07:02:36.338Z,3.30
2022-09-17T07:05:02.664Z,2.10
2022-09-17T07:07:29.072Z,2.40
2022-09-17T07:09:55.319Z,2.15
2022-09-17T07:12:21.727Z,2.47
2022-09-17T07:14:48.047Z,2.85
2022-09-17T07:17:14.732Z,3.70
2022-09-17T07:19:40.969Z,2.50
2022-09-17T07:22:08.132Z,2.42
2022-09-17T07:24:34.552Z,2.72
2022-09-17T07:27:01.614Z,3.15
2022-09-17T07:29:27.878Z,2.55
2022-09-17T07:31:54.659Z,4.25
2022-09-17T07:34:21.170Z,2.28
2022-09-17T07:36:47.406Z,2.53
2022-09-17T07:39:13.685Z,2.15
2022-09-17T07:41:40.323Z,2.33
2022-09-17T07:44:09.923Z,2.10
2022-09-17T07:46:36.369Z,2.15
2022-09-17T07:49:02.716Z,2.13
2022-09-17T07:51:29.016Z,1.77
2022-09-17T07:53:56.229Z,1.83
2022-09-17T07:56:22.685Z,2.00
2022-09-17T07:58:49.190Z,4.22
2022-09-17T08:01:16.703Z,2.13
2022-09-17T08:03:43.803Z,2.25
2022-09-17T08:06:14.573Z,1.75
2022-09-17T08:08:41.477Z,2.10
2022-09-17T08:11:11.555Z,2.15
2022-09-17T08:13:37.922Z,1.25
2022-09-17T08:16:05.795Z,2.33
2022-09-17T08:18:32.730Z,2.42
2022-09-17T08:20:59.570Z,2.13
2022-09-17T08:23:26.372Z,3.05
2022-09-17T08:25:53.569Z,2.20
2022-09-17T08:28:19.827Z,2.83
2022-09-17T08:30:48.175Z,1.58
2022-09-17T08:33:29.009Z,2.22
2022-09-17T08:35:55.464Z,1.67
2022-09-17T08:38:22.131Z,2.00
2022-09-17T08:41:14.958Z,3.10
2022-09-17T08:43:50.085Z,1.95
2022-09-17T08:46:16.373Z,2.95
2022-09-17T08:48:44.973Z,2.00
2022-09-17T08:51:21.722Z,1.50
2022-09-17T08:54:02.698Z,1.80
2022-09-17T08:56:31.602Z,1.90
2022-09-17T08:59:08.919Z,2.00
2022-09-17T09:01:35.214Z,3.28
2022-09-17T09:04:03.059Z,1.85
2022-09-17T09:06:37.742Z,2.22
2022-09-17T09:09:12.068Z,1.50
2022-09-17T09:11:40.210Z,1.55
2022-09-17T09:14:21.353Z,1.40
2022-09-17T09:16:48.525Z,1.30
2022-09-17T09:19:14.794Z,4.72
2022-09-17T09:21:52.418Z,1.90
2022-09-17T09:24:23.817Z,2.03
2022-09-17T09:26:59.195Z,2.53
2022-09-17T09:29:31.815Z,2.13
2022-09-17T09:32:16.176Z,1.25
2022-09-17T09:34:43.697Z,1.50
2022-09-17T09:37:30.244Z,3.53
2022-09-17T09:39:58.741Z,1.52
2022-09-17T09:42:32.497Z,2.17
2022-09-17T09:45:04.945Z,2.63
2022-09-17T09:47:41.895Z,1.27
2022-09-17T09:50:21.766Z,1.25
2022-09-17T09:52:48.483Z,1.15
2022-09-17T09:55:26.391Z,1.42
2022-09-17T09:57:55.617Z,0.85
2022-09-17T10:00:26.910Z,1.90
2022-09-17T10:03:11.867Z,1.05
2022-09-17T10:05:38.214Z,1.63
2022-09-17T10:08:12.057Z,1.92
2022-09-17T10:10:53.587Z,1.05
2022-09-17T10:13:20.238Z,1.80
2022-09-17T10:15:46.569Z,2.03
2022-09-17T10:18:20.050Z,0.88
2022-09-17T10:21:12.562Z,1.55
2022-09-17T10:23:43.272Z,1.45
2022-09-17T10:26:20.115Z,1.33
2022-09-17T10:29:09.607Z,1.45
2022-09-17T10:31:52.486Z,2.85
2022-09-17T10:34:28.875Z,1.20
2022-09-17T10:36:56.627Z,1.40
2022-09-17T10:39:37.917Z,1.73
2022-09-17T10:42:05.379Z,0.93
2022-09-17T10:44:37.847Z,1.05
2022-09-17T10:47:06.928Z,1.38
2022-09-17T10:49:38.752Z,1.27
2022-09-17T10:52:13.305Z,0.82
2022-09-17T10:54:48.527Z,1.25
2022-09-17T10:57:18.599Z,0.63
2022-09-17T11:02:20.796Z,0.65
2022-09-17T11:04:55.424Z,1.10
2022-09-17T11:07:32.119Z,0.95
2022-09-17T11:10:21.375Z,2.03
2022-09-17T11:12:47.582Z,1.00
2022-09-17T11:15:29.003Z,0.65
2022-09-17T11:18:01.321Z,1.02
2022-09-17T11:20:46.714Z,0.82
2022-09-17T11:23:31.843Z,0.80
2022-09-17T11:26:24.354Z,0.82
2022-09-17T11:29:08.578Z,1.80
2022-09-17T11:31:58.234Z,0.73
2022-09-17T11:34:36.521Z,0.80
2022-09-17T11:37:08.610Z,0.50
2022-09-17T11:39:46.885Z,1.75
2022-09-17T11:42:17.021Z,0.95
2022-09-17T11:44:49.387Z,0.52
2022-09-17T11:47:18.647Z,0.40
2022-09-17T11:49:50.918Z,0.70
2022-09-17T11:52:17.162Z,0.38
2022-09-17T11:54:55.516Z,0.75
2022-09-17T12:00:18.546Z,0.38
2022-09-17T12:02:57.579Z,0.65
2022-09-17T12:05:23.934Z,0.68
2022-09-17T12:07:54.723Z,0.70
2022-09-17T12:10:35.281Z,0.65
2022-09-17T12:13:07.401Z,0.57
2022-09-17T12:15:35.303Z,0.35
2022-09-17T12:18:31.273Z,0.10
2022-09-17T12:20:55.032Z,0.32
2022-09-17T12:23:31.345Z,0.20
2022-09-17T12:26:12.658Z,0.20
2022-09-17T12:28:59.297Z,0.10
2022-09-17T12:31:36.705Z,0.10
2022-09-17T12:34:16.163Z,0.40
2022-09-17T12:36:48.525Z,0.30
2022-09-17T12:39:26.087Z,0.43
2022-09-17T12:42:10.515Z,0.22
2022-09-17T12:44:48.912Z,0.30
2022-09-17T12:47:38.450Z,2.28
2022-09-17T12:50:13.632Z,0.28
2022-09-17T12:53:07.361Z,0.20
2022-09-17T12:55:33.602Z,0.30
2022-09-17T12:57:59.848Z,0.20
2022-09-17T13:00:27.021Z,0.90
2022-09-17T13:03:01.024Z,0.43
2022-09-17T13:05:27.255Z,0.22
2022-09-17T13:08:02.544Z,0.20
2022-09-17T13:10:47.803Z,0.40
2022-09-17T13:13:14.038Z,0.45
2022-09-17T13:15:59.065Z,1.17
2022-09-17T13:18:41.702Z,0.38
2022-09-17T13:21:17.976Z,0.20
2022-09-17T13:23:48.971Z,0.00
2022-09-17T13:26:19.025Z,0.10
2022-09-17T13:31:18.954Z,0.13
2022-09-17T13:33:58.818Z,0.30
2022-09-17T13:36:46.042Z,0.10
2022-09-17T13:39:32.741Z,0.57
2022-09-17T13:42:01.625Z,0.32
2022-09-17T13:44:27.954Z,0.00
2022-09-17T13:47:08.117Z,0.10
2022-09-17T13:52:00.662Z,0.40
2022-09-17T13:54:36.533Z,0.10
2022-09-17T13:57:07.816Z,0.47
2022-09-17T13:59:36.378Z,0.30
2022-09-17T14:02:04.429Z,0.30
2022-09-17T14:04:33.863Z,0.10
2022-09-17T14:07:00.516Z,0.60
2022-09-17T14:09:31.245Z,0.82
2022-09-17T14:11:57.510Z,0.28
2022-09-17T14:14:26.563Z,0.00
2022-09-17T14:16:52.830Z,0.50
2022-09-17T14:19:25.283Z,0.45
2022-09-17T14:21:59.506Z,1.05
2022-09-17T14:24:34.793Z,0.60
2022-09-17T14:27:10.379Z,0.65
2022-09-17T14:29:51.670Z,0.00
2022-09-17T14:32:20.905Z,0.82
2022-09-17T14:34:47.759Z,0.10
2022-09-17T14:37:16.767Z,0.45
2022-09-17T14:39:43.113Z,1.98
2022-09-17T14:42:15.018Z,0.10
2022-09-17T14:44:49.759Z,0.15
2022-09-17T14:47:18.565Z,1.38
2022-09-17T14:49:46.777Z,0.10
2022-09-17T14:52:25.003Z,0.10
2022-09-17T14:55:09.610Z,0.40
2022-09-17T14:57:36.897Z,0.15
2022-09-17T15:00:07.700Z,0.20
2022-09-17T15:02:41.202Z,0.17
2022-09-17T15:05:43.275Z,0.17
2022-09-17T15:08:09.797Z,0.30
2022-09-17T15:10:37.569Z,0.00
2022-09-17T15:13:07.711Z,0.30
2022-09-17T15:15:34.949Z,0.22
2022-09-17T15:18:01.210Z,0.10
2022-09-17T15:20:33.564Z,0.38
2022-09-17T15:23:08.950Z,0.15
2022-09-17T15:25:36.414Z,0.20
2022-09-17T15:28:06.403Z,0.25
2022-09-17T15:33:00.211Z,0.32
2022-09-17T15:35:29.978Z,0.52
2022-09-17T15:38:21.698Z,0.20
2022-09-17T15:40:43.903Z,0.40
2022-09-17T15:43:19.395Z,0.10
2022-09-17T15:45:46.210Z,1.90
2022-09-17T15:48:27.698Z,0.13
2022-09-17T15:50:55.042Z,0.10
2022-09-17T15:53:23.249Z,0.00
2022-09-17T15:55:58.807Z,0.40
2022-09-17T15:58:33.095Z,0.00
2022-09-17T16:01:11.664Z,0.00
2022-09-17T16:03:40.709Z,0.00
2022-09-17T16:06:19.313Z,0.20
2022-09-17T16:08:49.173Z,0.43
2022-09-17T16:13:41.631Z,0.17
2022-09-17T16:16:14.044Z,0.32
2022-09-17T16:18:40.361Z,0.90
2022-09-17T16:21:07.874Z,0.35
2022-09-17T16:23:34.227Z,0.60
2022-09-17T16:26:00.513Z,0.65
2022-09-17T16:28:26.778Z,0.20
2022-09-17T16:30:53.145Z,0.38
2022-09-17T16:33:19.904Z,0.50
2022-09-17T16:35:46.307Z,0.20
2022-09-17T16:38:13.042Z,1.50
2022-09-17T16:40:40.244Z,0.45
2022-09-17T16:43:06.609Z,0.40
2022-09-17T16:45:32.875Z,0.30
2022-09-17T16:47:59.163Z,0.57
2022-09-17T16:50:25.497Z,1.02
2022-09-17T16:52:52.323Z,0.30
2022-09-17T16:55:18.626Z,0.77
2022-09-17T16:57:45.135Z,1.38
2022-09-17T17:00:13.826Z,0.55
2022-09-17T17:02:40.139Z,1.70
2022-09-17T17:05:06.646Z,0.52
2022-09-17T17:07:34.545Z,1.08
2022-09-17T17:10:00.840Z,3.40
2022-09-17T17:12:27.199Z,0.70
2022-09-17T17:14:53.673Z,0.55
2022-09-17T17:17:20.728Z,2.63
2022-09-17T17:19:47.108Z,0.60
2022-09-17T17:22:13.983Z,0.35
2022-09-17T17:24:40.295Z,0.73
2022-09-17T17:27:08.793Z,0.75
2022-09-17T17:29:35.501Z,0.70
2022-09-17T17:32:04.965Z,0.60
2022-09-17T17:34:31.623Z,0.60
2022-09-17T17:36:58.266Z,0.73
2022-09-17T17:39:24.760Z,0.50
2022-09-17T17:41:51.857Z,0.43
2022-09-17T17:44:18.297Z,0.70
2022-09-17T17:46:44.583Z,0.50
2022-09-17T17:49:10.927Z,0.50
2022-09-17T17:51:37.173Z,0.57
2022-09-17T17:54:03.797Z,0.68
2022-09-17T17:56:30.044Z,1.25
2022-09-17T17:58:57.734Z,0.70
2022-09-17T18:01:25.659Z,0.80
2022-09-17T18:04:02.051Z,0.80
2022-09-17T18:06:28.887Z,0.90
2022-09-17T18:08:55.278Z,0.70
2022-09-17T18:11:21.943Z,0.90
2022-09-17T18:13:51.715Z,1.23
2022-09-17T18:16:18.136Z,2.22
2022-09-17T18:18:45.424Z,1.38
2022-09-17T18:21:12.897Z,1.00
2022-09-17T18:23:40.149Z,1.33
2022-09-17T18:26:08.079Z,0.73
2022-09-17T18:28:35.392Z,0.80
2022-09-17T18:31:05.602Z,1.10
2022-09-17T18:33:32.306Z,1.20
2022-09-17T18:36:00.864Z,1.60
2022-09-17T18:38:27.127Z,1.90
2022-09-17T18:40:53.377Z,1.52
2022-09-17T18:43:19.657Z,1.20
2022-09-17T18:45:55.923Z,1.30
2022-09-17T18:48:23.089Z,1.35
2022-09-17T18:51:18.714Z,2.28
2022-09-17T18:53:49.499Z,1.08
2022-09-17T18:56:19.141Z,0.80
2022-09-17T18:58:45.968Z,1.77
2022-09-17T19:01:12.588Z,2.50
2022-09-17T19:03:38.914Z,1.33
2022-09-17T19:06:06.761Z,1.33
2022-09-17T19:08:33.143Z,1.17
2022-09-17T19:10:59.406Z,0.50
2022-09-17T19:13:26.456Z,3.05
2022-09-17T19:15:57.259Z,1.42
2022-09-17T19:18:23.551Z,0.75
2022-09-17T19:20:49.812Z,0.82
2022-09-17T19:23:16.057Z,2.55
2022-09-17T19:25:42.318Z,1.08
2022-09-17T19:28:08.661Z,1.35
2022-09-17T19:30:35.081Z,1.45
2022-09-17T19:33:01.363Z,2.75
2022-09-17T19:35:27.803Z,1.00
2022-09-17T19:37:57.545Z,0.80
2022-09-17T19:40:23.891Z,1.20
2022-09-17T19:42:54.024Z,1.02
2022-09-17T19:45:23.747Z,1.17
2022-09-17T19:47:51.225Z,1.98
2022-09-17T19:50:23.502Z,1.23
2022-09-17T19:52:49.786Z,0.90
2022-09-17T19:55:16.050Z,0.88
2022-09-17T19:57:51.471Z,0.63
2022-09-17T20:00:17.756Z,1.92
2022-09-17T20:02:44.099Z,1.13
2022-09-17T20:05:10.403Z,1.40
2022-09-17T20:07:36.674Z,1.15
2022-09-17T20:10:02.976Z,1.40
2022-09-17T20:12:29.226Z,0.80
2022-09-17T20:14:55.508Z,1.02
2022-09-17T20:17:21.787Z,0.93
2022-09-17T20:19:48.052Z,1.00
2022-09-17T20:22:14.299Z,1.30
2022-09-17T20:24:40.750Z,0.73
2022-09-17T20:27:06.997Z,1.40
2022-09-17T20:29:33.301Z,1.40
2022-09-17T20:31:59.583Z,1.25
2022-09-17T20:34:25.847Z,1.65
2022-09-17T20:37:06.493Z,1.50
2022-09-17T20:39:38.449Z,1.25
2022-09-17T20:42:04.907Z,2.60
2022-09-17T20:44:31.169Z,2.30
2022-09-17T20:46:57.845Z,4.30
2022-09-17T20:49:24.217Z,3.65
2022-09-17T20:51:51.612Z,1.20
2022-09-17T20:54:17.877Z,2.53
2022-09-17T20:56:44.593Z,1.35
2022-09-17T20:59:17.776Z,2.38
2022-09-17T21:01:45.777Z,1.80
2022-09-17T21:04:14.101Z,0.95
2022-09-17T21:06:41.305Z,1.20
2022-09-17T21:09:10.269Z,1.55
2022-09-17T21:11:36.549Z,1.52
2022-09-17T21:14:02.848Z,0.80
2022-09-17T21:16:29.510Z,1.30
2022-09-17T21:18:57.492Z,3.53
2022-09-17T21:21:24.115Z,0.90
2022-09-17T21:23:51.037Z,0.82
2022-09-17T21:26:18.977Z,1.05
2022-09-17T21:28:46.088Z,1.98
2022-09-17T21:31:14.027Z,0.88
2022-09-17T21:33:41.022Z,0.77
2022-09-17T21:36:11.582Z,1.15
2022-09-17T21:38:38.174Z,0.85
2022-09-17T21:41:06.795Z,0.95
2022-09-17T21:43:34.271Z,1.73
2022-09-17T21:46:01.875Z,1.00
2022-09-17T21:48:29.078Z,1.20
2022-09-17T21:51:00.946Z,1.70
2022-09-17T21:53:27.177Z,1.00
2022-09-17T21:55:53.478Z,1.67
2022-09-17T21:58:19.724Z,1.20
2022-09-17T22:00:49.443Z,2.15
2022-09-17T22:03:16.918Z,1.58
2022-09-17T22:05:43.238Z,2.30
2022-09-17T22:08:09.482Z,1.98
2022-09-17T22:10:35.743Z,0.70
2022-09-17T22:13:01.995Z,1.25
2022-09-17T22:15:28.277Z,1.10
2022-09-17T22:17:54.567Z,4.18
2022-09-17T22:20:21.539Z,0.90
2022-09-17T22:22:48.227Z,0.85
2022-09-17T22:25:14.521Z,1.45
2022-09-17T22:27:40.812Z,0.80
2022-09-17T22:30:07.261Z,1.42
2022-09-17T22:32:33.519Z,0.93
2022-09-17T22:34:59.781Z,1.20
2022-09-17T22:37:28.684Z,1.55
2022-09-17T22:39:55.039Z,1.00
2022-09-17T22:42:21.349Z,1.13
2022-09-17T22:44:47.605Z,2.88
2022-09-17T22:47:13.858Z,0.88
2022-09-17T22:49:40.124Z,0.77
2022-09-17T22:52:06.359Z,3.53
2022-09-17T22:54:33.010Z,1.27
2022-09-17T22:56:59.358Z,0.93
2022-09-17T22:59:25.711Z,3.15
2022-09-17T23:01:52.090Z,1.38
2022-09-17T23:04:18.405Z,0.75
2022-09-17T23:06:44.686Z,1.23
2022-09-17T23:09:11.781Z,1.95
2022-09-17T23:11:38.730Z,1.70
2022-09-17T23:14:07.967Z,1.58
2022-09-17T23:16:35.313Z,1.52
2022-09-17T23:19:01.597Z,1.38
2022-09-17T23:21:27.843Z,1.20
2022-09-17T23:23:54.179Z,1.58
2022-09-17T23:26:22.027Z,1.80
2022-09-17T23:28:48.810Z,1.27
2022-09-17T23:31:16.212Z,1.42
2022-09-17T23:33:42.898Z,2.67
2022-09-17T23:36:12.698Z,1.50
2022-09-17T23:38:39.270Z,1.45
2022-09-17T23:41:14.607Z,1.98
2022-09-17T23:43:45.562Z,1.27
2022-09-17T23:46:12.189Z,1.58
2022-09-17T23:48:38.499Z,1.75
2022-09-17T23:51:05.287Z,1.85
2022-09-17T23:53:32.168Z,1.63
2022-09-17T23:56:00.266Z,1.52
2022-09-17T23:58:29.088Z,1.55
